createdAt,value
2022-10-22T00:01:42.878Z,76.12
2022-10-22T00:04:09.527Z,76.21
2022-10-22T00:06:36.234Z,76.44
2022-10-22T00:09:03.252Z,76.34
2022-10-22T00:11:30.189Z,76.55
2022-10-22T00:13:57.714Z,76.51
2022-10-22T00:16:24.369Z,76.42
2022-10-22T00:18:58.055Z,76.30
2022-10-22T00:21:25.746Z,76.55
2022-10-22T00:23:52.384Z,76.32
2022-10-22T00:26:19.022Z,76.32
2022-10-22T00:28:45.684Z,76.65
2022-10-22T00:31:12.382Z,76.53
2022-10-22T00:33:39.111Z,76.66
2022-10-22T00:36:06.201Z,76.50
2022-10-22T00:38:33.319Z,76.31
2022-10-22T00:43:31.533Z,76.47
2022-10-22T00:45:58.163Z,76.74
2022-10-22T00:48:29.518Z,76.87
2022-10-22T00:51:14.385Z,76.70
2022-10-22T00:53:46.847Z,76.72
2022-10-22T00:56:13.515Z,76.92
2022-10-22T00:58:43.849Z,76.82
2022-10-22T01:01:16.012Z,76.83
2022-10-22T01:03:42.697Z,76.58
2022-10-22T01:06:10.295Z,76.84
2022-10-22T01:08:43.326Z,77.00
2022-10-22T01:11:22.867Z,77.16
2022-10-22T01:14:07.312Z,77.26
2022-10-22T01:16:52.972Z,77.26
2022-10-22T01:20:03.950Z,77.48
2022-10-22T01:22:34.281Z,77.50
2022-10-22T01:25:16.503Z,77.53
2022-10-22T01:28:01.848Z,77.47
2022-10-22T01:30:28.471Z,77.25
2022-10-22T01:32:58.387Z,77.18
2022-10-22T01:35:29.792Z,77.15
2022-10-22T01:37:58.516Z,77.40
2022-10-22T01:40:25.393Z,77.21
2022-10-22T01:42:57.585Z,77.28
2022-10-22T01:45:24.452Z,77.45
2022-10-22T01:48:20.132Z,77.34
2022-10-22T01:51:16.564Z,77.50
2022-10-22T01:53:53.762Z,77.60
2022-10-22T01:56:36.674Z,77.55
2022-10-22T01:59:14.656Z,77.83
2022-10-22T02:02:00.201Z,77.60
2022-10-22T02:04:30.123Z,77.74
2022-10-22T02:06:58.709Z,77.96
2022-10-22T02:09:25.419Z,78.16
2022-10-22T02:11:52.118Z,78.42
2022-10-22T02:14:18.847Z,78.34
2022-10-22T02:16:46.457Z,78.34
2022-10-22T02:19:25.137Z,78.28
2022-10-22T02:21:52.023Z,78.65
2022-10-22T02:24:18.777Z,78.61
2022-10-22T02:27:27.155Z,78.84
2022-10-22T02:30:07.166Z,78.70
2022-10-22T02:32:44.643Z,78.89
2022-10-22T02:35:15.844Z,78.85
2022-10-22T02:37:42.507Z,79.03
2022-10-22T02:40:09.579Z,78.93
2022-10-22T02:42:37.261Z,78.99
2022-10-22T02:45:04.331Z,78.94
2022-10-22T02:47:31.051Z,78.66
2022-10-22T02:49:57.723Z,78.79
2022-10-22T02:52:24.424Z,78.67
2022-10-22T02:54:51.060Z,78.85
2022-10-22T02:57:17.887Z,78.85
2022-10-22T02:59:44.533Z,79.06
2022-10-22T03:02:11.193Z,79.13
2022-10-22T03:04:37.876Z,78.98
2022-10-22T03:07:04.537Z,79.14
2022-10-22T03:09:31.185Z,79.31
2022-10-22T03:11:57.925Z,78.94
2022-10-22T03:14:24.587Z,78.90
2022-10-22T03:16:51.202Z,78.84
2022-10-22T03:19:17.995Z,78.21
2022-10-22T03:21:55.716Z,78.48
2022-10-22T03:24:24.849Z,78.77
2022-10-22T03:26:54.582Z,79.27
2022-10-22T03:29:22.321Z,79.42
2022-10-22T03:31:49.048Z,79.95
2022-10-22T03:34:15.774Z,80.03
2022-10-22T03:36:42.430Z,79.96
2022-10-22T03:39:09.149Z,80.03
2022-10-22T03:41:35.848Z,80.05
2022-10-22T03:44:03.011Z,80.23
2022-10-22T03:46:29.652Z,80.18
2022-10-22T03:48:56.302Z,80.58
2022-10-22T03:51:23.632Z,80.83
2022-10-22T03:53:51.101Z,81.31
2022-10-22T03:56:17.717Z,81.63
2022-10-22T03:58:44.375Z,81.58
2022-10-22T04:01:12.585Z,82.04
2022-10-22T04:03:39.648Z,81.90
2022-10-22T04:06:08.152Z,82.24
2022-10-22T04:08:34.854Z,82.55
2022-10-22T04:11:01.665Z,82.50
2022-10-22T04:13:28.303Z,82.34
2022-10-22T04:15:55.110Z,82.35
2022-10-22T04:18:23.466Z,82.40
2022-10-22T04:20:51.679Z,82.70
2022-10-22T04:23:18.336Z,83.02
2022-10-22T04:25:44.980Z,83.30
2022-10-22T04:28:11.617Z,83.23
2022-10-22T04:30:38.304Z,83.48
2022-10-22T04:33:04.992Z,83.20
2022-10-22T04:35:31.656Z,83.16
2022-10-22T04:37:58.385Z,83.24
2022-10-22T04:40:25.027Z,83.38
2022-10-22T04:42:51.656Z,83.38
2022-10-22T04:45:18.295Z,83.64
2022-10-22T04:47:45.041Z,83.54
2022-10-22T04:50:11.844Z,83.41
2022-10-22T04:52:39.224Z,83.61
2022-10-22T04:55:06.466Z,83.75
2022-10-22T04:57:33.099Z,83.51
2022-10-22T04:59:59.800Z,83.57
2022-10-22T05:02:26.726Z,83.69
2022-10-22T05:04:53.364Z,83.58
2022-10-22T05:07:20.005Z,83.46
2022-10-22T05:09:46.680Z,83.49
2022-10-22T05:12:13.432Z,83.61
2022-10-22T05:14:43.985Z,83.87
2022-10-22T05:17:11.740Z,84.08
2022-10-22T05:19:38.415Z,84.47
2022-10-22T05:22:05.172Z,84.42
2022-10-22T05:24:32.413Z,84.59
2022-10-22T05:26:59.951Z,84.70
2022-10-22T05:29:35.984Z,84.83
2022-10-22T05:32:02.783Z,84.78
2022-10-22T05:34:29.460Z,84.53
2022-10-22T05:36:56.089Z,84.24
2022-10-22T05:39:22.748Z,84.24
2022-10-22T05:41:49.398Z,84.28
2022-10-22T05:44:16.117Z,84.52
2022-10-22T05:47:01.201Z,84.89
2022-10-22T05:49:27.944Z,84.74
2022-10-22T05:51:54.572Z,84.52
2022-10-22T05:54:22.349Z,84.52
2022-10-22T05:56:49.087Z,84.80
2022-10-22T05:59:15.715Z,84.90
2022-10-22T06:01:42.445Z,85.04
2022-10-22T06:04:10.888Z,84.88
2022-10-22T06:06:45.248Z,84.82
2022-10-22T06:09:31.897Z,84.86
2022-10-22T06:11:58.837Z,85.04
2022-10-22T06:14:25.653Z,84.75
2022-10-22T06:16:52.451Z,84.82
2022-10-22T06:19:20.136Z,84.85
2022-10-22T06:21:47.045Z,85.16
2022-10-22T06:24:13.903Z,85.11
2022-10-22T06:26:41.135Z,84.38
2022-10-22T08:28:25.961Z,64.68
2022-10-22T08:30:52.602Z,64.52
2022-10-22T08:33:19.336Z,64.91
2022-10-22T08:35:52.375Z,65.02
2022-10-22T08:38:19.257Z,64.71
2022-10-22T08:43:44.768Z,64.63
2022-10-22T08:46:33.034Z,64.42
2022-10-22T08:49:01.792Z,64.32
2022-10-22T08:51:31.546Z,64.32
2022-10-22T08:54:19.437Z,63.86
2022-10-22T08:56:50.833Z,63.41
2022-10-22T08:59:20.294Z,63.21
2022-10-22T09:01:49.861Z,63.08
2022-10-22T09:04:25.515Z,63.23
2022-10-22T09:06:53.695Z,62.80
2022-10-22T09:09:21.412Z,62.85
2022-10-22T09:11:50.037Z,63.19
2022-10-22T09:14:21.913Z,63.14
2022-10-22T09:16:57.404Z,63.29
2022-10-22T09:19:38.216Z,63.11
2022-10-22T09:22:11.320Z,63.04
2022-10-22T09:25:06.602Z,63.28
2022-10-22T09:27:33.257Z,63.36
2022-10-22T09:30:00.770Z,63.23
2022-10-22T09:32:27.424Z,63.51
2022-10-22T09:34:56.384Z,63.05
2022-10-22T09:37:26.280Z,63.04
2022-10-22T09:39:53.189Z,63.36
2022-10-22T09:42:20.452Z,63.73
2022-10-22T09:44:55.090Z,63.87
2022-10-22T09:48:00.420Z,63.87
2022-10-22T09:50:47.659Z,64.18
2022-10-22T09:53:21.942Z,64.17
2022-10-22T09:55:59.162Z,64.02
2022-10-22T09:58:25.940Z,63.82
2022-10-22T10:00:55.053Z,64.13
2022-10-22T10:03:23.445Z,63.96
2022-10-22T10:05:53.141Z,63.72
2022-10-22T10:08:19.832Z,64.09
2022-10-22T10:11:12.906Z,63.79
2022-10-22T10:14:07.193Z,63.72
2022-10-22T10:16:33.734Z,63.68
2022-10-22T10:19:24.741Z,63.56
2022-10-22T10:22:10.805Z,63.36
2022-10-22T10:25:15.096Z,63.03
2022-10-22T10:27:48.987Z,62.96
2022-10-22T10:30:30.705Z,63.16
2022-10-22T10:33:38.372Z,63.09
2022-10-22T10:36:17.178Z,62.44
2022-10-22T10:39:08.449Z,62.31
2022-10-22T10:42:05.043Z,62.41
2022-10-22T10:44:51.927Z,62.56
2022-10-22T10:47:21.633Z,62.23
2022-10-22T10:49:48.252Z,62.16
2022-10-22T10:52:30.540Z,62.12
2022-10-22T10:55:19.875Z,61.89
2022-10-22T10:57:56.110Z,62.03
2022-10-22T11:00:22.818Z,62.24
2022-10-22T11:03:34.230Z,61.74
2022-10-22T11:06:03.136Z,61.24
2022-10-22T11:08:55.035Z,61.34
2022-10-22T11:11:27.885Z,61.09
2022-10-22T11:14:00.479Z,60.85
2022-10-22T11:16:43.097Z,60.90
2022-10-22T11:19:50.235Z,61.14
2022-10-22T11:22:26.469Z,61.10
2022-10-22T11:25:01.655Z,60.97
2022-10-22T11:27:47.299Z,60.98
2022-10-22T11:30:16.288Z,60.67
2022-10-22T11:32:44.517Z,60.75
2022-10-22T11:35:26.034Z,60.80
2022-10-22T11:37:52.993Z,60.81
2022-10-22T11:40:21.151Z,60.67
2022-10-22T16:06:44.973Z,78.62
2022-10-22T16:16:16.652Z,78.54
2022-10-22T16:18:43.479Z,78.25
2022-10-22T21:59:36.332Z,98.11
2022-10-22T22:02:05.832Z,98.16
2022-10-22T22:04:38.302Z,98.13
2022-10-22T22:07:10.623Z,97.59
2022-10-22T22:09:37.654Z,97.50
2022-10-22T22:12:05.200Z,97.00
2022-10-22T22:14:32.735Z,96.71
2022-10-22T22:16:59.484Z,96.13
2022-10-22T22:19:26.417Z,95.52
2022-10-22T22:21:53.611Z,95.19
2022-10-22T22:24:20.309Z,94.56
2022-10-22T22:26:47.981Z,94.42
2022-10-22T22:29:14.848Z,93.73
2022-10-22T22:31:42.955Z,93.20
2022-10-22T22:34:20.401Z,92.35
2022-10-22T22:36:48.324Z,91.49
2022-10-22T22:39:20.734Z,90.68
2022-10-22T22:41:48.017Z,90.53
2022-10-22T22:44:15.199Z,90.36
2022-10-22T22:46:41.981Z,90.28
2022-10-22T22:49:08.813Z,90.03
2022-10-22T22:51:35.609Z,89.75
2022-10-22T22:54:02.331Z,89.38
2022-10-22T22:56:30.171Z,89.24
2022-10-22T22:58:57.069Z,88.93
2022-10-22T23:01:29.035Z,88.93
2022-10-22T23:04:04.163Z,88.62
2022-10-22T23:06:33.191Z,88.55
2022-10-22T23:09:00.080Z,88.13
2022-10-22T23:11:27.200Z,87.89
2022-10-22T23:13:58.528Z,87.49
2022-10-22T23:16:27.324Z,87.02
2022-10-22T23:18:54.673Z,86.98
2022-10-22T23:21:23.550Z,86.83
2022-10-22T23:23:52.005Z,86.58
2022-10-22T23:26:20.381Z,86.42
2022-10-22T23:28:47.120Z,86.37
2022-10-22T23:31:19.165Z,86.35
2022-10-22T23:33:45.906Z,86.28
2022-10-22T23:36:12.708Z,86.17
2022-10-22T23:38:39.684Z,86.06
2022-10-22T23:41:06.459Z,86.01
2022-10-22T23:43:36.072Z,86.17
2022-10-22T23:46:06.118Z,86.05
2022-10-22T23:48:44.763Z,86.00
2022-10-22T23:51:16.907Z,85.85
2022-10-22T23:53:44.201Z,85.77
2022-10-22T23:56:17.754Z,85.74
2022-10-22T23:58:44.496Z,85.71
